Flight Track Log - Related Links

Times and Time Zones

All times are in EDT time to prevent confusion due to time zone crossing. See the EJA312 flight status page for this flight to view local times or setup timezone preferences in your user account.

Time Position Orientation Groundspeed Altitude Reporting Facility
EDT Latitude Longitude Course Direction KTS MPH feet Rate Location/Type
Sun 08:30:32 AM 47.1508 -88.5656 203° Southwest 263 303 5,500  Level Minneapolis Center
Sun 08:31:33 AM 47.0764 -88.6128 203° Southwest 288 331 9,800 5,115 Climbing Minneapolis Center
Sun 08:32:34 AM 47.0006 -88.6528 200° South 289 333 15,900 4,820 Climbing Minneapolis Center
Sun 08:33:35 AM 46.9278 -88.6969 203° Southwest 285 328 19,600 3,273 Climbing Minneapolis Center
Sun 08:34:35 AM 46.8514 -88.7439 203° Southwest 293 337 22,500 2,777 Climbing Minneapolis Center
Sun 08:35:36 AM 46.7717 -88.7911 202° Southwest 304 350 25,200 2,557 Climbing Minneapolis Center
Sun 08:36:37 AM 46.6908 -88.8403 203° Southwest 313 360 27,700 2,311 Climbing Minneapolis Center
Sun 08:37:38 AM 46.6064 -88.8894 202° Southwest 323 372 29,900 2,016 Climbing Minneapolis Center
Sun 08:38:39 AM 46.5219 -88.9411 203° Southwest 328 377 31,800 1,672 Climbing Minneapolis Center
Sun 08:39:40 AM 46.4336 -88.9925 202° Southwest 337 388 33,300 1,525 Climbing Minneapolis Center
Sun 08:40:41 AM 46.3372 -89.0478 202° Southwest 345 397 34,900 1,770 Climbing Minneapolis Center
Sun 08:41:42 AM 46.2453 -89.1025 202° Southwest 350 403 36,900 1,475 Climbing Minneapolis Center
Sun 08:42:43 AM 46.1547 -89.1564 202° Southwest 353 406 37,900 934 Climbing Minneapolis Center
Sun 08:43:44 AM 46.0689 -89.2053 202° Southwest 348 400 38,800 885 Climbing Minneapolis Center
Sun 08:44:45 AM 45.9800 -89.2578 202° Southwest 347 399 39,700 843 Climbing Minneapolis Center
Sun 08:45:45 AM 45.8892 -89.3094 202° Southwest 349 402 40,500 645 Climbing Minneapolis Center
Sun 08:46:46 AM 45.7978 -89.3639 203° Southwest 351 404 41,000 246 Climbing Minneapolis Center
Sun 08:47:47 AM 45.6833 -89.4283 201° Southwest 363 418 41,000  Level Minneapolis Center
Sun 08:48:48 AM 45.5956 -89.4653 196° South 389 448 41,000  Level Minneapolis Center
Sun 08:49:49 AM 45.4825 -89.4797 185° South 408 470 41,000  Level Minneapolis Center
Sun 08:50:50 AM 45.3431 -89.5011 186° South 419 482 41,000  Level Minneapolis Center
Sun 08:51:51 AM 45.2264 -89.5181 186° South 422 486 41,000  Level Minneapolis Center
Sun 08:52:52 AM 45.1097 -89.5361 186° South 421 484 41,000  Level Minneapolis Center
Sun 08:53:53 AM 44.9989 -89.5528 186° South 421 484 41,000  Level Minneapolis Center
Sun 08:54:54 AM 44.8833 -89.5697 186° South 421 484 41,000  Level Minneapolis Center
Sun 08:55:55 AM 44.7681 -89.5878 186° South 418 481 41,000  Level Minneapolis Center
Sun 08:56:56 AM 44.6528 -89.6044 186° South 418 481 41,000  Level Minneapolis Center
Sun 08:57:57 AM 44.5372 -89.6219 186° South 418 481 41,000  Level Minneapolis Center
Sun 08:58:58 AM 44.3961 -89.6439 186° South 425 489 41,000  Level Minneapolis Center
Sun 08:59:59 AM 44.2778 -89.6606 186° South 430 495 41,000  Level Minneapolis Center
Sun 09:01:00 AM 44.1578 -89.6778 186° South 434 499 41,000  Level Minneapolis Center
Sun 09:01:51 AM 44.0639 -89.6903 185° South 433 498 41,000  Level Chicago Center
Sun 09:02:53 AM 43.9453 -89.7078 186° South 431 496 41,000  Level Chicago Center
Sun 09:03:54 AM 43.8283 -89.7256 186° South 428 493 41,000  Level Chicago Center
Sun 09:04:55 AM 43.7119 -89.7431 186° South 425 489 41,000  Level Chicago Center
Sun 09:05:57 AM 43.5964 -89.7578 185° South 420 483 41,000  Level Chicago Center
Sun 09:06:58 AM 43.4617 -89.8011 193° South 419 482 41,000  Level Chicago Center
Sun 09:08:00 AM 43.3531 -89.8431 196° South 410 472 41,000  Level Chicago Center
Sun 09:09:01 AM 43.2444 -89.8881 197° South 411 473 41,000  Level Chicago Center
Sun 09:10:03 AM 43.1344 -89.9317 196° South 412 474 41,000  Level Chicago Center
Sun 09:13:50 AM 42.7244 -90.1810 196° South 405 466 41,000  Level FlightAware ADS-B (LPVM)
Sun 09:15:11 AM 42.6047 -90.2569 196° South 405 466 41,000  Level Chicago Center
Sun 09:16:12 AM 42.5031 -90.3203 205° Southwest 405 466 41,000  Level Chicago Center
Sun 09:17:14 AM 42.3992 -90.3836 204° Southwest 408 470 41,000  Level Chicago Center
Sun 09:18:16 AM 42.2961 -90.4481 205° Southwest 410 472 41,000  Level Chicago Center
Sun 09:19:17 AM 42.1933 -90.5103 204° Southwest 407 468 41,000  Level Chicago Center
Sun 09:20:19 AM 42.0903 -90.5744 205° Southwest 409 471 41,000  Level Chicago Center
Sun 09:21:21 AM 41.9656 -90.6522 205° Southwest 413 475 41,000  Level Chicago Center
Sun 09:24:40 AM 41.6018 -90.8712 205° Southwest 405 466 41,000  Level FlightAware ADS-B (LPVM)
Sun 09:26:41 AM 41.4099 -90.9863 204° Southwest 404 465 41,000  Level FlightAware ADS-B (LPVM)
Sun 09:28:33 AM 41.2196 -91.1001 204° Southwest 404 465 41,000  Level FlightAware ADS-B (LPVM)
Sun 09:29:29 AM 41.1344 -91.1511 204° Southwest 404 465 41,000  Level Kansas City Center
Sun 09:30:31 AM 41.0317 -91.2125 204° Southwest 405 466 41,000  Level Kansas City Center
Sun 09:31:32 AM 40.9289 -91.2719 204° Southwest 405 466 41,000  Level Kansas City Center
Sun 09:32:33 AM 40.8275 -91.3292 203° Southwest 410 472 41,000  Level Kansas City Center
Sun 09:33:34 AM 40.7256 -91.3911 205° Southwest 408 470 41,000  Level Kansas City Center
Sun 09:34:36 AM 40.6022 -91.4628 204° Southwest 406 467 41,000  Level Kansas City Center
Sun 09:35:37 AM 40.4989 -91.5222 204° Southwest 407 468 41,000  Level Kansas City Center
Sun 09:36:38 AM 40.3967 -91.5814 204° Southwest 405 466 41,000  Level Kansas City Center
Sun 09:37:40 AM 40.2942 -91.6403 204° Southwest 404 465 41,000  Level Kansas City Center
Sun 09:38:41 AM 40.1928 -91.6997 204° Southwest 401 461 41,000  Level Kansas City Center
Sun 09:39:42 AM 40.0914 -91.7578 204° Southwest 401 461 41,000  Level Kansas City Center
Sun 09:40:44 AM 39.9903 -91.8167 204° Southwest 398 458 41,000  Level Kansas City Center
Sun 09:41:45 AM 39.8897 -91.8742 204° Southwest 398 458 41,000  Level Kansas City Center
Sun 09:42:46 AM 39.7867 -91.9319 203° Southwest 399 459 41,000  Level Kansas City Center
Sun 09:43:48 AM 39.6658 -92.0014 204° Southwest 399 459 41,000  Level Kansas City Center
Sun 09:44:49 AM 39.5669 -92.0558 203° Southwest 392 451 41,000  Level Kansas City Center
Sun 09:45:50 AM 39.4656 -92.1125 203° Southwest 395 455 41,000  Level Kansas City Center
Sun 09:46:52 AM 39.3647 -92.1703 204° Southwest 397 457 41,000  Level Kansas City Center
Sun 09:47:53 AM 39.2639 -92.2250 203° Southwest 395 455 41,000  Level Kansas City Center
Sun 09:48:55 AM 39.1467 -92.2903 203° Southwest 395 455 41,000  Level Kansas City Center
Sun 09:49:56 AM 39.0450 -92.3489 204° Southwest 397 457 41,000  Level Kansas City Center
Sun 09:50:58 AM 38.9442 -92.4047 203° Southwest 395 455 41,000  Level Kansas City Center
Sun 09:51:59 AM 38.8436 -92.4611 204° Southwest 394 453 41,000  Level Kansas City Center
Sun 09:53:01 AM 38.7419 -92.5164 203° Southwest 394 453 41,000  Level Kansas City Center
Sun 09:54:02 AM 38.6428 -92.5722 204° Southwest 392 451 41,000  Level Kansas City Center
Sun 09:55:04 AM 38.5425 -92.6275 203° Southwest 392 451 41,000  Level Kansas City Center
Sun 09:56:06 AM 38.4428 -92.6808 203° Southwest 391 450 41,000  Level Kansas City Center
Sun 09:57:07 AM 38.3244 -92.7450 203° Southwest 389 448 41,000  Level Kansas City Center
Sun 09:58:09 AM 38.2258 -92.7989 203° Southwest 387 445 41,000  Level Kansas City Center
Sun 09:59:10 AM 38.1269 -92.8517 203° Southwest 387 445 41,000  Level Kansas City Center
Sun 10:00:12 AM 38.0275 -92.9056 203° Southwest 388 447 41,000  Level Kansas City Center
Sun 10:01:14 AM 37.9281 -92.9583 203° Southwest 388 447 41,000  Level Kansas City Center
Sun 10:02:15 AM 37.8289 -93.0114 203° Southwest 388 447 41,000  Level Kansas City Center
Sun 10:03:17 AM 37.7300 -93.0642 203° Southwest 387 445 41,000  Level Kansas City Center
Sun 10:04:19 AM 37.6100 -93.1269 203° Southwest 388 447 41,000  Level Kansas City Center
Sun 10:05:20 AM 37.5100 -93.1803 203° Southwest 388 447 41,000  Level Kansas City Center
Sun 10:06:22 AM 37.4108 -93.2331 203° Southwest 387 445 41,000  Level Kansas City Center
Sun 10:07:24 AM 37.3089 -93.2856 202° Southwest 391 450 41,000  Level Kansas City Center
Sun 10:08:26 AM 37.2083 -93.3364 202° Southwest 389 448 41,000  Level Kansas City Center
Sun 10:09:27 AM 37.1092 -93.3900 203° Southwest 388 447 41,000  Level Kansas City Center
Sun 10:10:29 AM 37.0103 -93.4414 203° Southwest 384 442 41,000  Level Kansas City Center
Sun 10:11:31 AM 36.9125 -93.4947 204° Southwest 382 440 41,000  Level Kansas City Center
Sun 10:12:32 AM 36.8089 -93.5467 202° Southwest 385 443 41,000  Level Kansas City Center
Sun 10:13:34 AM 36.7119 -93.5978 203° Southwest 383 441 41,000  Level Kansas City Center
Sun 10:14:36 AM 36.5953 -93.6572 202° Southwest 380 437 41,000  Level Kansas City Center
Sun 10:15:37 AM 36.4986 -93.7078 203° Southwest 379 436 41,000  Level Kansas City Center
Sun 10:16:39 AM 36.4022 -93.7578 203° Southwest 377 434 41,000  Level Kansas City Center
Sun 10:17:41 AM 36.3031 -93.8086 202° Southwest 382 440 41,000  Level Kansas City Center
Sun 10:18:42 AM 36.2058 -93.8586 203° Southwest 381 438 41,000  Level Kansas City Center
Sun 10:19:44 AM 36.1083 -93.9083 202° Southwest 381 438 41,000  Level Kansas City Center
Sun 10:20:46 AM 36.0103 -93.9592 203° Southwest 382 440 41,000  Level Kansas City Center
Sun 10:21:47 AM 35.8942 -94.0175 202° Southwest 380 437 41,000  Level Kansas City Center
Sun 10:22:49 AM 35.7961 -94.0658 202° Southwest 380 437 41,000  Level Kansas City Center
Sun 10:23:51 AM 35.6978 -94.1161 203° Southwest 381 438 41,000  Level Kansas City Center
Sun 10:25:12 AM 35.5592 -94.1858 202° Southwest 382 440 41,000  Level Memphis Center
Sun 10:26:14 AM 35.4611 -94.2353 202° Southwest 381 438 41,000  Level Memphis Center
Sun 10:27:16 AM 35.3664 -94.2931 206° Southwest 385 443 41,000  Level Memphis Center
Sun 10:28:18 AM 35.2928 -94.3764 223° Southwest 366 421 41,000 -97 Level Memphis Center
Sun 10:29:20 AM 35.2183 -94.4572 222° Southwest 361 415 40,800 -484 Descending Memphis Center
Sun 10:30:22 AM 35.1292 -94.5531 221° Southwest 358 412 40,000 -1,016 Descending Memphis Center
Sun 10:31:24 AM 35.0556 -94.6333 222° Southwest 357 411 38,700 -968 Descending Memphis Center
Sun 10:32:26 AM 34.9842 -94.7119 222° Southwest 356 410 38,000 -339 Descending Memphis Center
Sun 10:33:28 AM 34.9069 -94.7925 221° Southwest 361 415 38,000  Level Memphis Center
Sun 10:34:30 AM 34.7944 -94.8375 198° South 386 444 38,000  Level Memphis Center
Sun 10:35:32 AM 34.6922 -94.8772 198° South 384 442 38,000  Level Memphis Center
Sun 10:36:35 AM 34.5889 -94.9214 199° South 382 440 38,000 -242 Level Fort Worth Center
Sun 10:37:36 AM 34.4894 -94.9544 195° South 376 433 37,500 -850 Descending Fort Worth Center
Sun 10:38:35 AM 34.3922 -94.9975 200° South 376 433 36,300 -1,261 Descending Fort Worth Center
Sun 10:39:35 AM 34.2844 -95.0408 198° South 388 447 35,000 -942 Descending Fort Worth Center
Sun 10:40:36 AM 34.1850 -95.0786 197° South 388 447 34,400 -700 Descending Fort Worth Center
Sun 10:41:35 AM 34.0794 -95.1217 199° South 393 452 33,600 -1,059 Descending Fort Worth Center
Sun 10:42:35 AM 33.9717 -95.1669 199° South 403 464 32,300 -1,388 Descending Fort Worth Center
Sun 10:43:36 AM 33.8642 -95.2147 200° South 403 464 30,800 -1,650 Descending Fort Worth Center
Sun 10:44:35 AM 33.7544 -95.2675 202° Southwest 413 475 29,000 -1,866 Descending Fort Worth Center
Sun 10:45:35 AM 33.6467 -95.3225 203° Southwest 419 482 27,100 -1,884 Descending Fort Worth Center
Sun 10:46:36 AM 33.5392 -95.3847 206° Southwest 419 482 25,200 -1,550 Descending Fort Worth Center
Sun 10:47:35 AM 33.4847 -95.5031 241° Southwest 397 457 24,000 -1,966 Descending Fort Worth Center
Sun 10:48:35 AM 33.4533 -95.6458 255° West 383 441 21,300 -2,430 Descending Fort Worth Center
Sun 10:49:36 AM 33.4217 -95.7658 252° West 390 449 19,100 -2,150 Descending Fort Worth Center
Sun 10:50:35 AM 33.3897 -95.8808 252° West 376 433 17,000 -2,017 Descending Fort Worth Center
Sun 10:51:35 AM 33.3597 -95.9958 253° West 370 426 15,100 -1,983 Descending Fort Worth Center
Sun 10:52:36 AM 33.3256 -96.1083 250° West 364 419 13,000 -1,950 Descending Fort Worth Center
Sun 10:53:35 AM 33.2972 -96.2131 252° West 349 402 11,200 -1,765 Descending Fort Worth Center
Sun 10:54:35 AM 33.2711 -96.3053 251° West 315 362 9,500 -1,593 Descending Fort Worth Center
Sun 10:56:32 AM 33.2000 -96.4333 236° Southwest 257 296 6,500 -1,544 Descending Dallas / Fort Worth TRACON
Sun 10:57:26 AM 33.1667 -96.5000 239° Southwest 238 274 5,100 -789 Descending Dallas / Fort Worth TRACON
Sun 10:58:26 AM 33.1167 -96.5667 228° Southwest 240 276 5,000 -50 Descending Dallas / Fort Worth TRACON
Sun 10:59:26 AM 33.0833 -96.6333 239° Southwest 262 302 5,000  Level Dallas / Fort Worth TRACON
Sun 11:00:26 AM 33.0333 -96.7000 228° Southwest 257 296 5,000 -619 Level Dallas / Fort Worth TRACON
Sun 11:01:32 AM 33.0000 -96.7667 239° Southwest 229 264 3,700 -952 Descending Dallas / Fort Worth TRACON
Sun 11:02:32 AM 32.9500 -96.8333 228° Southwest 243 280 3,000 -850 Descending Dallas / Fort Worth TRACON
Sun 11:03:32 AM 32.9167 -96.8833 232° Southwest 195 224 2,000 -750 Descending Dallas / Fort Worth TRACON
Sun 11:04:32 AM 32.8833 -96.8833 180° South 144 166 1,500 -632 Descending Dallas / Fort Worth TRACON
Sun 11:05:26 AM 32.8667 -96.8667 140° Southeast 110 127 800 -778 Descending Dallas / Fort Worth TRACON
Sun 11:08:00 AM 32.8471 -96.8518 North  Level Estimated
Sun 11:15:00 AM 32.8471 -96.8518 North  Level Estimated

Login

Don't have an account? Register now (free) for customized features, flight alerts, and more!